sensor_id;sensor_type;location;lat;lon;timestamp;pressure;altitude;pressure_sealevel;temperature
63009;BMP280;49099;28.428;-16.488;2022-08-19T00:02:03;98439.97;;;23.51
63009;BMP280;49099;28.428;-16.488;2022-08-19T00:04:34;98441.00;;;23.48
63009;BMP280;49099;28.428;-16.488;2022-08-19T00:07:05;98440.75;;;23.46
63009;BMP280;49099;28.428;-16.488;2022-08-19T00:09:32;98441.25;;;23.45
63009;BMP280;49099;28.428;-16.488;2022-08-19T00:12:00;98435.88;;;23.45
63009;BMP280;49099;28.428;-16.488;2022-08-19T00:14:29;98434.88;;;23.48
63009;BMP280;49099;28.428;-16.488;2022-08-19T00:16:59;98442.94;;;23.48
63009;BMP280;49099;28.428;-16.488;2022-08-19T00:19:27;98442.84;;;23.53
63009;BMP280;49099;28.428;-16.488;2022-08-19T00:21:54;98448.69;;;23.57
63009;BMP280;49099;28.428;-16.488;2022-08-19T00:24:23;98438.94;;;23.60
63009;BMP280;49099;28.428;-16.488;2022-08-19T00:26:50;98444.53;;;23.62
63009;BMP280;49099;28.428;-16.488;2022-08-19T00:29:20;98451.31;;;23.63
63009;BMP280;49099;28.428;-16.488;2022-08-19T00:31:48;98438.81;;;23.71
63009;BMP280;49099;28.428;-16.488;2022-08-19T00:34:16;98426.53;;;23.81
63009;BMP280;49099;28.428;-16.488;2022-08-19T00:36:43;98432.34;;;23.85
63009;BMP280;49099;28.428;-16.488;2022-08-19T00:39:12;98420.63;;;23.88
63009;BMP280;49099;28.428;-16.488;2022-08-19T00:41:39;98417.94;;;23.88
63009;BMP280;49099;28.428;-16.488;2022-08-19T00:44:11;98419.16;;;23.87
63009;BMP280;49099;28.428;-16.488;2022-08-19T00:46:41;98420.13;;;23.89
63009;BMP280;49099;28.428;-16.488;2022-08-19T00:49:25;98410.09;;;23.90
63009;BMP280;49099;28.428;-16.488;2022-08-19T00:52:01;98413.00;;;23.92
63009;BMP280;49099;28.428;-16.488;2022-08-19T00:54:29;98407.13;;;23.93
63009;BMP280;49099;28.428;-16.488;2022-08-19T00:56:58;98407.66;;;23.92
63009;BMP280;49099;28.428;-16.488;2022-08-19T00:59:27;98403.28;;;23.89
63009;BMP280;49099;28.428;-16.488;2022-08-19T01:02:15;98408.16;;;23.90
63009;BMP280;49099;28.428;-16.488;2022-08-19T01:04:43;98407.91;;;23.88
63009;BMP280;49099;28.428;-16.488;2022-08-19T01:07:10;98407.50;;;23.84
63009;BMP280;49099;28.428;-16.488;2022-08-19T01:09:42;98405.06;;;23.81
63009;BMP280;49099;28.428;-16.488;2022-08-19T01:12:10;98400.00;;;23.77
63009;BMP280;49099;28.428;-16.488;2022-08-19T01:14:39;98399.03;;;23.75
63009;BMP280;49099;28.428;-16.488;2022-08-19T01:17:09;98398.81;;;23.73
63009;BMP280;49099;28.428;-16.488;2022-08-19T01:19:39;98393.22;;;23.71
63009;BMP280;49099;28.428;-16.488;2022-08-19T01:22:15;98390.81;;;23.67
63009;BMP280;49099;28.428;-16.488;2022-08-19T01:24:51;98388.00;;;23.60
63009;BMP280;49099;28.428;-16.488;2022-08-19T01:27:20;98383.59;;;23.57
63009;BMP280;49099;28.428;-16.488;2022-08-19T01:29:50;98388.69;;;23.60
63009;BMP280;49099;28.428;-16.488;2022-08-19T01:32:17;98388.88;;;23.68
63009;BMP280;49099;28.428;-16.488;2022-08-19T01:35:01;98388.88;;;23.68
63009;BMP280;49099;28.428;-16.488;2022-08-19T01:37:40;98386.41;;;23.70
63009;BMP280;49099;28.428;-16.488;2022-08-19T01:40:08;98385.69;;;23.69
63009;BMP280;49099;28.428;-16.488;2022-08-19T01:42:35;98384.69;;;23.72
63009;BMP280;49099;28.428;-16.488;2022-08-19T01:45:05;98377.56;;;23.75
63009;BMP280;49099;28.428;-16.488;2022-08-19T01:47:35;98383.91;;;23.77
63009;BMP280;49099;28.428;-16.488;2022-08-19T01:50:04;98384.84;;;23.80
63009;BMP280;49099;28.428;-16.488;2022-08-19T01:52:35;98372.38;;;23.82
63009;BMP280;49099;28.428;-16.488;2022-08-19T01:55:04;98375.31;;;23.84
63009;BMP280;49099;28.428;-16.488;2022-08-19T01:57:32;98373.56;;;23.87
63009;BMP280;49099;28.428;-16.488;2022-08-19T01:59:59;98370.09;;;23.92
63009;BMP280;49099;28.428;-16.488;2022-08-19T02:02:27;98367.63;;;23.94
63009;BMP280;49099;28.428;-16.488;2022-08-19T02:04:54;98378.63;;;23.90
63009;BMP280;49099;28.428;-16.488;2022-08-19T02:07:21;98382.78;;;23.91
63009;BMP280;49099;28.428;-16.488;2022-08-19T02:09:48;98382.50;;;23.95
63009;BMP280;49099;28.428;-16.488;2022-08-19T02:12:16;98380.81;;;23.92
63009;BMP280;49099;28.428;-16.488;2022-08-19T02:14:43;98380.38;;;23.88
63009;BMP280;49099;28.428;-16.488;2022-08-19T02:17:10;98383.63;;;23.81
63009;BMP280;49099;28.428;-16.488;2022-08-19T02:19:37;98380.06;;;23.73
63009;BMP280;49099;28.428;-16.488;2022-08-19T02:22:06;98389.88;;;23.65
63009;BMP280;49099;28.428;-16.488;2022-08-19T02:24:33;98380.94;;;23.57
63009;BMP280;49099;28.428;-16.488;2022-08-19T02:27:00;98378.81;;;23.50
63009;BMP280;49099;28.428;-16.488;2022-08-19T02:29:27;98383.22;;;23.47
63009;BMP280;49099;28.428;-16.488;2022-08-19T02:31:55;98375.47;;;23.44
63009;BMP280;49099;28.428;-16.488;2022-08-19T02:34:22;98381.38;;;23.37
63009;BMP280;49099;28.428;-16.488;2022-08-19T02:36:49;98380.69;;;23.31
63009;BMP280;49099;28.428;-16.488;2022-08-19T02:39:18;98379.00;;;23.28
63009;BMP280;49099;28.428;-16.488;2022-08-19T02:41:45;98380.00;;;23.25
63009;BMP280;49099;28.428;-16.488;2022-08-19T02:44:12;98376.38;;;23.22
63009;BMP280;49099;28.428;-16.488;2022-08-19T02:46:56;98366.09;;;23.26
63009;BMP280;49099;28.428;-16.488;2022-08-19T02:49:23;98374.88;;;23.27
63009;BMP280;49099;28.428;-16.488;2022-08-19T02:51:50;98367.50;;;23.33
63009;BMP280;49099;28.428;-16.488;2022-08-19T02:54:17;98367.72;;;23.35
63009;BMP280;49099;28.428;-16.488;2022-08-19T02:56:45;98379.16;;;23.35
63009;BMP280;49099;28.428;-16.488;2022-08-19T02:59:13;98377.66;;;23.40
63009;BMP280;49099;28.428;-16.488;2022-08-19T03:01:41;98366.19;;;23.45
63009;BMP280;49099;28.428;-16.488;2022-08-19T03:04:11;98377.84;;;23.47
63009;BMP280;49099;28.428;-16.488;2022-08-19T03:06:40;98373.44;;;23.50
63009;BMP280;49099;28.428;-16.488;2022-08-19T03:09:09;98362.94;;;23.52
63009;BMP280;49099;28.428;-16.488;2022-08-19T03:11:37;98363.16;;;23.54
63009;BMP280;49099;28.428;-16.488;2022-08-19T03:14:05;98361.72;;;23.53
63009;BMP280;49099;28.428;-16.488;2022-08-19T03:16:40;98362.69;;;23.55
63009;BMP280;49099;28.428;-16.488;2022-08-19T03:19:07;98359.28;;;23.55
63009;BMP280;49099;28.428;-16.488;2022-08-19T03:21:35;98352.88;;;23.58
63009;BMP280;49099;28.428;-16.488;2022-08-19T03:24:05;98350.00;;;23.56
63009;BMP280;49099;28.428;-16.488;2022-08-19T03:26:32;98358.75;;;23.56
63009;BMP280;49099;28.428;-16.488;2022-08-19T03:29:04;98358.25;;;23.58
63009;BMP280;49099;28.428;-16.488;2022-08-19T03:31:34;98361.94;;;23.55
63009;BMP280;49099;28.428;-16.488;2022-08-19T03:34:20;98357.81;;;23.54
63009;BMP280;49099;28.428;-16.488;2022-08-19T03:36:48;98357.81;;;23.54
63009;BMP280;49099;28.428;-16.488;2022-08-19T03:39:16;98360.22;;;23.57
63009;BMP280;49099;28.428;-16.488;2022-08-19T03:41:45;98363.88;;;23.60
63009;BMP280;49099;28.428;-16.488;2022-08-19T03:44:17;98366.97;;;23.64
63009;BMP280;49099;28.428;-16.488;2022-08-19T03:46:46;98367.97;;;23.61
63009;BMP280;49099;28.428;-16.488;2022-08-19T03:49:15;98361.19;;;23.60
63009;BMP280;49099;28.428;-16.488;2022-08-19T03:51:45;98361.88;;;23.60
63009;BMP280;49099;28.428;-16.488;2022-08-19T03:54:14;98355.09;;;23.59
63009;BMP280;49099;28.428;-16.488;2022-08-19T03:56:43;98364.34;;;23.58
63009;BMP280;49099;28.428;-16.488;2022-08-19T03:59:13;98367.50;;;23.62
63009;BMP280;49099;28.428;-16.488;2022-08-19T04:01:41;98375.25;;;23.66
63009;BMP280;49099;28.428;-16.488;2022-08-19T04:04:09;98367.41;;;23.68
63009;BMP280;49099;28.428;-16.488;2022-08-19T04:06:37;98376.44;;;23.70
63009;BMP280;49099;28.428;-16.488;2022-08-19T04:09:08;98371.06;;;23.70
63009;BMP280;49099;28.428;-16.488;2022-08-19T04:11:40;98378.59;;;23.72
63009;BMP280;49099;28.428;-16.488;2022-08-19T04:14:16;98373.22;;;23.72
63009;BMP280;49099;28.428;-16.488;2022-08-19T04:16:44;98373.94;;;23.72
63009;BMP280;49099;28.428;-16.488;2022-08-19T04:19:14;98367.84;;;23.72
63009;BMP280;49099;28.428;-16.488;2022-08-19T04:21:44;98380.06;;;23.73
63009;BMP280;49099;28.428;-16.488;2022-08-19T04:24:12;98373.94;;;23.72
63009;BMP280;49099;28.428;-16.488;2022-08-19T04:26:40;98370.78;;;23.74
63009;BMP280;49099;28.428;-16.488;2022-08-19T04:29:14;98373.44;;;23.74
63009;BMP280;49099;28.428;-16.488;2022-08-19T04:31:42;98368.09;;;23.74
63009;BMP280;49099;28.428;-16.488;2022-08-19T04:34:11;98373.22;;;23.72
63009;BMP280;49099;28.428;-16.488;2022-08-19T04:36:40;98368.59;;;23.72
63009;BMP280;49099;28.428;-16.488;2022-08-19T04:39:11;98375.91;;;23.72
63009;BMP280;49099;28.428;-16.488;2022-08-19T04:41:39;98379.31;;;23.72
63009;BMP280;49099;28.428;-16.488;2022-08-19T04:44:25;98373.69;;;23.76
63009;BMP280;49099;28.428;-16.488;2022-08-19T04:46:52;98367.81;;;23.77
63009;BMP280;49099;28.428;-16.488;2022-08-19T04:49:22;98363.41;;;23.80
63009;BMP280;49099;28.428;-16.488;2022-08-19T04:51:51;98357.03;;;23.83
63009;BMP280;49099;28.428;-16.488;2022-08-19T04:54:24;98368.03;;;23.79
63009;BMP280;49099;28.428;-16.488;2022-08-19T04:57:08;98359.47;;;23.81
63009;BMP280;49099;28.428;-16.488;2022-08-19T04:59:38;98357.31;;;23.79
63009;BMP280;49099;28.428;-16.488;2022-08-19T05:02:07;98364.41;;;23.77
63009;BMP280;49099;28.428;-16.488;2022-08-19T05:04:35;98368.75;;;23.80
63009;BMP280;49099;28.428;-16.488;2022-08-19T05:07:07;98363.41;;;23.80
63009;BMP280;49099;28.428;-16.488;2022-08-19T05:09:34;98364.41;;;23.77
63009;BMP280;49099;28.428;-16.488;2022-08-19T05:12:21;98365.84;;;23.78
63009;BMP280;49099;28.428;-16.488;2022-08-19T05:14:58;98371.22;;;23.78
63009;BMP280;49099;28.428;-16.488;2022-08-19T05:17:26;98365.84;;;23.78
63009;BMP280;49099;28.428;-16.488;2022-08-19T05:20:00;98374.13;;;23.80
63009;BMP280;49099;28.428;-16.488;2022-08-19T05:22:46;98370.22;;;23.81
63009;BMP280;49099;28.428;-16.488;2022-08-19T05:25:19;98374.13;;;23.80
63009;BMP280;49099;28.428;-16.488;2022-08-19T05:27:47;98376.38;;;23.76
63009;BMP280;49099;28.428;-16.488;2022-08-19T05:30:15;98381.50;;;23.74
63009;BMP280;49099;28.428;-16.488;2022-08-19T05:32:43;98377.31;;;23.78
63009;BMP280;49099;28.428;-16.488;2022-08-19T05:35:10;98382.38;;;23.82
63009;BMP280;49099;28.428;-16.488;2022-08-19T05:37:38;98385.81;;;23.82
63009;BMP280;49099;28.428;-16.488;2022-08-19T05:40:08;98387.00;;;23.81
63009;BMP280;49099;28.428;-16.488;2022-08-19T05:42:36;98387.75;;;23.82
63009;BMP280;49099;28.428;-16.488;2022-08-19T05:45:04;98387.00;;;23.81
63009;BMP280;49099;28.428;-16.488;2022-08-19T05:47:31;98394.59;;;23.83
63009;BMP280;49099;28.428;-16.488;2022-08-19T05:49:59;98391.97;;;23.77
63009;BMP280;49099;28.428;-16.488;2022-08-19T05:52:30;98391.53;;;23.73
63009;BMP280;49099;28.428;-16.488;2022-08-19T05:54:59;98394.47;;;23.70
63009;BMP280;49099;28.428;-16.488;2022-08-19T05:57:26;98390.34;;;23.69
63009;BMP280;49099;28.428;-16.488;2022-08-19T05:59:56;98398.19;;;23.67
63009;BMP280;49099;28.428;-16.488;2022-08-19T06:02:30;98397.19;;;23.64
63009;BMP280;49099;28.428;-16.488;2022-08-19T06:04:58;98399.94;;;23.59
63009;BMP280;49099;28.428;-16.488;2022-08-19T06:07:25;98398.25;;;23.56
63009;BMP280;49099;28.428;-16.488;2022-08-19T06:09:52;98403.63;;;23.56
63009;BMP280;49099;28.428;-16.488;2022-08-19T06:12:33;98408.28;;;23.55
63009;BMP280;49099;28.428;-16.488;2022-08-19T06:15:13;98405.06;;;23.57
63009;BMP280;49099;28.428;-16.488;2022-08-19T06:17:41;98408.28;;;23.55
63009;BMP280;49099;28.428;-16.488;2022-08-19T06:20:11;98405.06;;;23.57
63009;BMP280;49099;28.428;-16.488;2022-08-19T06:22:45;98410.88;;;23.61
63009;BMP280;49099;28.428;-16.488;2022-08-19T06:25:14;98412.34;;;23.62
63009;BMP280;49099;28.428;-16.488;2022-08-19T06:27:41;98420.84;;;23.66
63009;BMP280;49099;28.428;-16.488;2022-08-19T06:30:29;98423.72;;;23.68
63009;BMP280;49099;28.428;-16.488;2022-08-19T06:32:56;98414.69;;;23.71
63009;BMP280;49099;28.428;-16.488;2022-08-19T06:35:23;98417.34;;;23.71
63009;BMP280;49099;28.428;-16.488;2022-08-19T06:37:50;98415.19;;;23.69
63009;BMP280;49099;28.428;-16.488;2022-08-19T06:40:19;98413.97;;;23.70
63009;BMP280;49099;28.428;-16.488;2022-08-19T06:42:46;98420.84;;;23.66
63009;BMP280;49099;28.428;-16.488;2022-08-19T06:45:22;98420.84;;;23.60
63009;BMP280;49099;28.428;-16.488;2022-08-19T06:47:51;98432.06;;;23.64
63009;BMP280;49099;28.428;-16.488;2022-08-19T06:50:23;98434.69;;;23.70
63009;BMP280;49099;28.428;-16.488;2022-08-19T06:52:51;98437.31;;;23.75
63009;BMP280;49099;28.428;-16.488;2022-08-19T06:55:18;98447.31;;;23.75
63009;BMP280;49099;28.428;-16.488;2022-08-19T06:57:45;98455.59;;;23.77
63009;BMP280;49099;28.428;-16.488;2022-08-19T07:00:13;98451.91;;;23.80
63009;BMP280;49099;28.428;-16.488;2022-08-19T07:02:42;98448.69;;;23.81
63009;BMP280;49099;28.428;-16.488;2022-08-19T07:05:21;98453.81;;;23.85
63009;BMP280;49099;28.428;-16.488;2022-08-19T07:07:48;98458.97;;;23.83
63009;BMP280;49099;28.428;-16.488;2022-08-19T07:10:17;98460.91;;;23.82
63009;BMP280;49099;28.428;-16.488;2022-08-19T07:12:44;98461.13;;;23.84
63009;BMP280;49099;28.428;-16.488;2022-08-19T07:15:12;98454.03;;;23.87
63009;BMP280;49099;28.428;-16.488;2022-08-19T07:17:39;98465.22;;;23.91
63009;BMP280;49099;28.428;-16.488;2022-08-19T07:20:08;98463.19;;;23.97
63009;BMP280;49099;28.428;-16.488;2022-08-19T07:22:37;98464.13;;;23.99
63009;BMP280;49099;28.428;-16.488;2022-08-19T07:25:07;98457.06;;;24.02
63009;BMP280;49099;28.428;-16.488;2022-08-19T07:27:34;98462.88;;;24.06
63009;BMP280;49099;28.428;-16.488;2022-08-19T07:30:02;98457.22;;;24.09
63009;BMP280;49099;28.428;-16.488;2022-08-19T07:32:30;98462.81;;;24.11
63009;BMP280;49099;28.428;-16.488;2022-08-19T07:34:58;98466.72;;;24.10
63009;BMP280;49099;28.428;-16.488;2022-08-19T07:37:27;98467.53;;;24.05
63009;BMP280;49099;28.428;-16.488;2022-08-19T07:40:00;98464.31;;;24.07
63009;BMP280;49099;28.428;-16.488;2022-08-19T07:42:27;98468.91;;;24.12
63009;BMP280;49099;28.428;-16.488;2022-08-19T07:44:57;98472.34;;;24.12
63009;BMP280;49099;28.428;-16.488;2022-08-19T07:47:25;98467.66;;;24.13
63009;BMP280;49099;28.428;-16.488;2022-08-19T07:50:12;98464.53;;;24.09
63009;BMP280;49099;28.428;-16.488;2022-08-19T07:52:40;98462.31;;;24.13
63009;BMP280;49099;28.428;-16.488;2022-08-19T07:55:09;98461.06;;;24.14
63009;BMP280;49099;28.428;-16.488;2022-08-19T07:57:57;98461.31;;;24.16
63009;BMP280;49099;28.428;-16.488;2022-08-19T08:00:24;98458.34;;;24.19
63009;BMP280;49099;28.428;-16.488;2022-08-19T08:02:53;98464.88;;;24.24
63009;BMP280;49099;28.428;-16.488;2022-08-19T08:05:25;98473.91;;;24.26
63009;BMP280;49099;28.428;-16.488;2022-08-19T08:08:12;98462.88;;;24.24
63009;BMP280;49099;28.428;-16.488;2022-08-19T08:10:59;98464.38;;;24.25
63009;BMP280;49099;28.428;-16.488;2022-08-19T08:13:27;98467.50;;;24.29
63009;BMP280;49099;28.428;-16.488;2022-08-19T08:15:56;98464.06;;;24.29
63009;BMP280;49099;28.428;-16.488;2022-08-19T08:18:24;98460.69;;;24.28
63009;BMP280;49099;28.428;-16.488;2022-08-19T08:20:54;98460.94;;;24.25
63009;BMP280;49099;28.428;-16.488;2022-08-19T08:23:22;98457.50;;;24.30
63009;BMP280;49099;28.428;-16.488;2022-08-19T08:25:55;98470.38;;;24.31
63009;BMP280;49099;28.428;-16.488;2022-08-19T08:28:24;98456.03;;;24.29
63009;BMP280;49099;28.428;-16.488;2022-08-19T08:30:54;98454.28;;;24.31
63009;BMP280;49099;28.428;-16.488;2022-08-19T08:33:25;98459.72;;;24.26
63009;BMP280;49099;28.428;-16.488;2022-08-19T08:36:07;98466.09;;;24.23
63009;BMP280;49099;28.428;-16.488;2022-08-19T08:38:34;98468.56;;;24.21
63009;BMP280;49099;28.428;-16.488;2022-08-19T08:41:49;98479.28;;;24.21
63009;BMP280;49099;28.428;-16.488;2022-08-19T08:44:31;98484.00;;;24.15
63009;BMP280;49099;28.428;-16.488;2022-08-19T08:47:04;98481.81;;;24.13
63009;BMP280;49099;28.428;-16.488;2022-08-19T08:50:05;98492.28;;;24.17
63009;BMP280;49099;28.428;-16.488;2022-08-19T08:52:37;98491.81;;;24.13
63009;BMP280;49099;28.428;-16.488;2022-08-19T08:55:21;98496.91;;;24.16
63009;BMP280;49099;28.428;-16.488;2022-08-19T09:00:22;98492.72;;;24.21
63009;BMP280;49099;28.428;-16.488;2022-08-19T09:02:50;98496.59;;;24.20
63009;BMP280;49099;28.428;-16.488;2022-08-19T09:05:21;98502.44;;;24.24
63009;BMP280;49099;28.428;-16.488;2022-08-19T09:07:59;98497.97;;;24.32
63009;BMP280;49099;28.428;-16.488;2022-08-19T09:10:44;98497.69;;;24.35
63009;BMP280;49099;28.428;-16.488;2022-08-19T09:13:32;98495.44;;;24.39
63009;BMP280;49099;28.428;-16.488;2022-08-19T09:16:21;98510.25;;;24.46
63009;BMP280;49099;28.428;-16.488;2022-08-19T09:18:57;98513.69;;;24.46
63009;BMP280;49099;28.428;-16.488;2022-08-19T09:21:25;98515.19;;;24.42
63009;BMP280;49099;28.428;-16.488;2022-08-19T09:24:00;98508.59;;;24.19
63009;BMP280;49099;28.428;-16.488;2022-08-19T09:26:29;98503.88;;;24.25
63009;BMP280;49099;28.428;-16.488;2022-08-19T09:29:18;98523.06;;;24.34
63009;BMP280;49099;28.428;-16.488;2022-08-19T09:31:48;98522.78;;;24.38
63009;BMP280;49099;28.428;-16.488;2022-08-19T09:34:17;98533.22;;;24.47
63009;BMP280;49099;28.428;-16.488;2022-08-19T09:36:48;98525.03;;;24.58
63009;BMP280;49099;28.428;-16.488;2022-08-19T09:39:20;98530.97;;;24.69
63009;BMP280;49099;28.428;-16.488;2022-08-19T09:41:47;98530.69;;;24.73
63009;BMP280;49099;28.428;-16.488;2022-08-19T09:44:17;98535.97;;;24.78
63009;BMP280;49099;28.428;-16.488;2022-08-19T09:46:44;98533.81;;;24.77
63009;BMP280;49099;28.428;-16.488;2022-08-19T09:49:15;98542.34;;;24.81
63009;BMP280;49099;28.428;-16.488;2022-08-19T09:51:44;98534.47;;;24.83
63009;BMP280;49099;28.428;-16.488;2022-08-19T09:54:17;98535.34;;;24.91
63009;BMP280;49099;28.428;-16.488;2022-08-19T09:56:51;98541.81;;;25.01
63009;BMP280;49099;28.428;-16.488;2022-08-19T09:59:19;98531.69;;;25.07
63009;BMP280;49099;28.428;-16.488;2022-08-19T10:01:46;98529.16;;;25.14
63009;BMP280;49099;28.428;-16.488;2022-08-19T10:04:14;98534.16;;;25.23
63009;BMP280;49099;28.428;-16.488;2022-08-19T10:06:49;98538.22;;;25.30
63009;BMP280;49099;28.428;-16.488;2022-08-19T10:09:20;98522.72;;;25.36
63009;BMP280;49099;28.428;-16.488;2022-08-19T10:12:00;98524.38;;;25.39
63009;BMP280;49099;28.428;-16.488;2022-08-19T10:14:28;98533.50;;;25.36
63009;BMP280;49099;28.428;-16.488;2022-08-19T10:16:55;98536.59;;;25.40
63009;BMP280;49099;28.428;-16.488;2022-08-19T10:19:24;98536.19;;;25.36
63009;BMP280;49099;28.428;-16.488;2022-08-19T10:21:53;98531.78;;;25.20
63009;BMP280;49099;28.428;-16.488;2022-08-19T10:24:25;98531.84;;;25.14
63009;BMP280;49099;28.428;-16.488;2022-08-19T10:26:54;98535.63;;;25.24
63009;BMP280;49099;28.428;-16.488;2022-08-19T10:29:26;98531.81;;;25.33
63009;BMP280;49099;28.428;-16.488;2022-08-19T10:32:04;98522.75;;;25.49
63009;BMP280;49099;28.428;-16.488;2022-08-19T10:34:39;98519.47;;;25.43
63009;BMP280;49099;28.428;-16.488;2022-08-19T10:37:15;98520.31;;;25.51
63009;BMP280;49099;28.428;-16.488;2022-08-19T10:39:54;98521.31;;;25.48
63009;BMP280;49099;28.428;-16.488;2022-08-19T10:42:22;98527.63;;;25.50
63009;BMP280;49099;28.428;-16.488;2022-08-19T10:44:49;98523.63;;;25.57
63009;BMP280;49099;28.428;-16.488;2022-08-19T10:47:17;98526.22;;;25.62
63009;BMP280;49099;28.428;-16.488;2022-08-19T10:49:55;98532.03;;;25.66
63009;BMP280;49099;28.428;-16.488;2022-08-19T10:52:43;98533.63;;;25.75
63009;BMP280;49099;28.428;-16.488;2022-08-19T10:55:23;98524.00;;;25.79
63009;BMP280;49099;28.428;-16.488;2022-08-19T10:58:14;98528.00;;;25.73
63009;BMP280;49099;28.428;-16.488;2022-08-19T11:00:42;98537.13;;;25.70
63009;BMP280;49099;28.428;-16.488;2022-08-19T11:03:12;98534.63;;;25.72
63009;BMP280;49099;28.428;-16.488;2022-08-19T11:05:39;98533.19;;;25.71
63009;BMP280;49099;28.428;-16.488;2022-08-19T11:08:08;98538.88;;;25.67
63009;BMP280;49099;28.428;-16.488;2022-08-19T11:10:49;98539.06;;;25.69
63009;BMP280;49099;28.428;-16.488;2022-08-19T11:13:17;98550.06;;;25.71
63009;BMP280;49099;28.428;-16.488;2022-08-19T11:15:44;98540.22;;;25.74
63009;BMP280;49099;28.428;-16.488;2022-08-19T11:18:14;98546.81;;;25.73
63009;BMP280;49099;28.428;-16.488;2022-08-19T11:20:41;98538.28;;;25.74
63009;BMP280;49099;28.428;-16.488;2022-08-19T11:23:08;98544.13;;;25.73
63009;BMP280;49099;28.428;-16.488;2022-08-19T11:25:38;98546.03;;;25.78
63009;BMP280;49099;28.428;-16.488;2022-08-19T11:28:05;98546.03;;;25.78
63009;BMP280;49099;28.428;-16.488;2022-08-19T11:30:32;98554.81;;;25.78
63009;BMP280;49099;28.428;-16.488;2022-08-19T11:33:00;98549.38;;;25.84
63009;BMP280;49099;28.428;-16.488;2022-08-19T11:35:27;98553.69;;;25.87
63009;BMP280;49099;28.428;-16.488;2022-08-19T11:37:54;98551.00;;;25.87
63009;BMP280;49099;28.428;-16.488;2022-08-19T11:40:24;98551.47;;;25.91
63009;BMP280;49099;28.428;-16.488;2022-08-19T11:42:51;98547.72;;;25.94
63009;BMP280;49099;28.428;-16.488;2022-08-19T11:45:27;98548.09;;;25.98
63009;BMP280;49099;28.428;-16.488;2022-08-19T11:47:55;98547.41;;;25.98
63009;BMP280;49099;28.428;-16.488;2022-08-19T11:50:23;98536.84;;;26.00
63009;BMP280;49099;28.428;-16.488;2022-08-19T11:52:54;98531.47;;;26.00
63009;BMP280;49099;28.428;-16.488;2022-08-19T11:55:22;98536.34;;;26.01
63009;BMP280;49099;28.428;-16.488;2022-08-19T11:57:50;98531.34;;;26.05
63009;BMP280;49099;28.428;-16.488;2022-08-19T12:00:17;98538.09;;;26.12
63009;BMP280;49099;28.428;-16.488;2022-08-19T12:02:45;98530.25;;;26.14
63009;BMP280;49099;28.428;-16.488;2022-08-19T12:05:12;98532.63;;;26.17
63009;BMP280;49099;28.428;-16.488;2022-08-19T12:07:39;98531.47;;;26.26
63009;BMP280;49099;28.428;-16.488;2022-08-19T12:10:10;98528.47;;;26.29
63009;BMP280;49099;28.428;-16.488;2022-08-19T12:12:37;98522.88;;;26.27
63009;BMP280;49099;28.428;-16.488;2022-08-19T12:15:13;98512.50;;;26.31
63009;BMP280;49099;28.428;-16.488;2022-08-19T12:17:41;98518.00;;;26.39
63009;BMP280;49099;28.428;-16.488;2022-08-19T12:20:11;98510.84;;;26.41
63009;BMP280;49099;28.428;-16.488;2022-08-19T12:22:40;98506.47;;;26.51
63009;BMP280;49099;28.428;-16.488;2022-08-19T12:25:09;98515.59;;;26.61
63009;BMP280;49099;28.428;-16.488;2022-08-19T12:27:38;98507.06;;;26.70
63009;BMP280;49099;28.428;-16.488;2022-08-19T12:30:11;98509.94;;;26.72
63009;BMP280;49099;28.428;-16.488;2022-08-19T12:32:39;98508.91;;;26.75
63009;BMP280;49099;28.428;-16.488;2022-08-19T12:35:06;98502.41;;;26.71
63009;BMP280;49099;28.428;-16.488;2022-08-19T12:37:35;98514.28;;;26.75
63009;BMP280;49099;28.428;-16.488;2022-08-19T12:40:03;98515.56;;;26.74
63009;BMP280;49099;28.428;-16.488;2022-08-19T12:42:30;98513.91;;;26.71
63009;BMP280;49099;28.428;-16.488;2022-08-19T12:44:57;98516.09;;;26.60
63009;BMP280;49099;28.428;-16.488;2022-08-19T12:47:24;98501.78;;;26.65
63009;BMP280;49099;28.428;-16.488;2022-08-19T12:49:53;98501.88;;;26.72
63009;BMP280;49099;28.428;-16.488;2022-08-19T12:52:25;98497.50;;;26.82
63009;BMP280;49099;28.428;-16.488;2022-08-19T12:54:55;98495.09;;;26.79
63009;BMP280;49099;28.428;-16.488;2022-08-19T12:57:25;98496.88;;;26.76
63009;BMP280;49099;28.428;-16.488;2022-08-19T13:00:00;98491.00;;;26.78
63009;BMP280;49099;28.428;-16.488;2022-08-19T13:02:33;98491.00;;;26.78
63009;BMP280;49099;28.428;-16.488;2022-08-19T13:05:06;98492.63;;;26.81
63009;BMP280;49099;28.428;-16.488;2022-08-19T13:07:35;98490.03;;;26.75
63009;BMP280;49099;28.428;-16.488;2022-08-19T13:10:06;98490.44;;;26.79
63009;BMP280;49099;28.428;-16.488;2022-08-19T13:12:34;98499.66;;;26.84
63009;BMP280;49099;28.428;-16.488;2022-08-19T13:15:02;98488.97;;;26.78
63009;BMP280;49099;28.428;-16.488;2022-08-19T13:17:37;98485.91;;;26.74
63009;BMP280;49099;28.428;-16.488;2022-08-19T13:20:09;98490.56;;;26.94
63009;BMP280;49099;28.428;-16.488;2022-08-19T13:22:37;98502.97;;;27.10
63009;BMP280;49099;28.428;-16.488;2022-08-19T13:25:06;98505.91;;;27.12
63009;BMP280;49099;28.428;-16.488;2022-08-19T13:27:33;98506.22;;;27.09
63009;BMP280;49099;28.428;-16.488;2022-08-19T13:30:03;98503.63;;;27.03
63009;BMP280;49099;28.428;-16.488;2022-08-19T13:32:49;98497.38;;;27.08
63009;BMP280;49099;28.428;-16.488;2022-08-19T13:35:34;98495.22;;;27.07
63009;BMP280;49099;28.428;-16.488;2022-08-19T13:38:01;98506.91;;;27.09
63009;BMP280;49099;28.428;-16.488;2022-08-19T13:40:38;98497.56;;;27.10
63009;BMP280;49099;28.428;-16.488;2022-08-19T13:43:07;98498.31;;;27.11
63009;BMP280;49099;28.428;-16.488;2022-08-19T13:45:49;98498.38;;;27.18
63009;BMP280;49099;28.428;-16.488;2022-08-19T13:48:16;98499.56;;;27.30
63009;BMP280;49099;28.428;-16.488;2022-08-19T13:50:45;98497.81;;;27.40
63009;BMP280;49099;28.428;-16.488;2022-08-19T13:53:15;98499.03;;;27.52
63009;BMP280;49099;28.428;-16.488;2022-08-19T13:55:43;98494.41;;;27.60
63009;BMP280;49099;28.428;-16.488;2022-08-19T13:58:11;98482.34;;;27.61
63009;BMP280;49099;28.428;-16.488;2022-08-19T14:00:42;98486.31;;;27.60
63009;BMP280;49099;28.428;-16.488;2022-08-19T14:03:10;98482.78;;;27.73
63009;BMP280;49099;28.428;-16.488;2022-08-19T14:05:38;98472.91;;;27.75
63009;BMP280;49099;28.428;-16.488;2022-08-19T14:08:05;98465.72;;;27.78